createdAt,value
2018-02-11T00:00:30.188Z,79.50
2018-02-11T00:02:59.468Z,79.60
2018-02-11T00:05:27.980Z,79.50
2018-02-11T00:07:57.708Z,79.70
2018-02-11T00:10:26.192Z,79.70
2018-02-11T00:12:55.017Z,79.20
2018-02-11T00:15:23.513Z,79.00
2018-02-11T00:17:51.993Z,79.00
2018-02-11T00:20:20.478Z,79.30
2018-02-11T00:22:49.734Z,78.70
2018-02-11T00:25:18.229Z,78.70
2018-02-11T00:27:46.707Z,78.80
2018-02-11T00:30:15.807Z,78.70
2018-02-11T00:32:44.296Z,78.80
2018-02-11T00:35:12.768Z,78.70
2018-02-11T00:37:46.663Z,78.80
2018-02-11T00:40:15.983Z,78.80
2018-02-11T00:42:44.457Z,78.80
2018-02-11T00:45:12.947Z,78.80
2018-02-11T00:47:41.486Z,78.60
2018-02-11T00:50:09.983Z,78.50
2018-02-11T00:52:39.470Z,78.50
2018-02-11T00:55:07.942Z,78.80
2018-02-11T00:57:36.430Z,78.70
2018-02-11T01:00:04.563Z,78.90
2018-02-11T01:02:34.826Z,79.30
2018-02-11T01:05:03.331Z,79.30
2018-02-11T01:07:31.798Z,79.10
2018-02-11T01:10:00.271Z,79.10
2018-02-11T01:12:28.764Z,79.30
2018-02-11T01:14:57.743Z,79.50
2018-02-11T01:17:26.213Z,79.50
2018-02-11T01:19:55.100Z,79.60
2018-02-11T01:22:23.557Z,79.50
2018-02-11T01:24:52.044Z,79.10
2018-02-11T01:27:20.543Z,79.30
2018-02-11T01:29:49.020Z,79.20
2018-02-11T01:32:17.531Z,79.20
2018-02-11T01:34:46.008Z,79.30
2018-02-11T01:37:14.480Z,79.50
2018-02-11T01:39:42.990Z,79.80
2018-02-11T01:42:12.228Z,79.80
2018-02-11T01:44:40.703Z,79.80
2018-02-11T01:47:09.220Z,79.70
2018-02-11T01:49:37.707Z,79.90
2018-02-11T01:52:06.220Z,79.70
2018-02-11T01:54:35.488Z,80.10
2018-02-11T01:57:03.967Z,80.10
2018-02-11T01:59:32.463Z,79.60
2018-02-11T02:02:01.726Z,79.70
2018-02-11T02:04:30.202Z,79.60
2018-02-11T02:06:58.695Z,79.70
2018-02-11T02:09:28.044Z,80.00
2018-02-11T02:11:57.194Z,80.30
2018-02-11T02:14:26.114Z,80.00
2018-02-11T02:16:56.151Z,80.20
2018-02-11T02:19:24.663Z,80.20
2018-02-11T02:21:53.139Z,79.80
2018-02-11T02:24:21.632Z,79.50
2018-02-11T02:26:50.114Z,79.40
2018-02-11T02:29:18.619Z,79.70
2018-02-11T02:31:47.862Z,79.30
2018-02-11T02:34:16.337Z,79.30
2018-02-11T02:36:44.826Z,79.90
2018-02-11T02:39:14.063Z,78.60
2018-02-11T02:41:42.547Z,78.60
2018-02-11T02:44:11.030Z,78.80
2018-02-11T02:46:39.537Z,78.90
2018-02-11T02:49:08.025Z,79.00
2018-02-11T02:51:37.476Z,79.10
2018-02-11T02:54:06.427Z,79.70
2018-02-11T02:56:35.660Z,78.60
2018-02-11T02:59:04.134Z,78.50
2018-02-11T03:01:33.153Z,78.60
2018-02-11T03:04:01.697Z,78.70
2018-02-11T03:06:30.180Z,79.10
2018-02-11T03:08:58.671Z,78.90
2018-02-11T03:11:27.167Z,78.50
2018-02-11T03:13:55.701Z,78.50
2018-02-11T03:16:24.952Z,78.50
2018-02-11T03:18:53.510Z,78.50
2018-02-11T03:21:21.984Z,78.70
2018-02-11T03:23:50.489Z,78.40
2018-02-11T03:26:18.953Z,78.40
2018-02-11T03:28:47.541Z,78.60
2018-02-11T03:31:16.022Z,78.80
2018-02-11T03:33:44.633Z,78.80
2018-02-11T03:36:13.127Z,78.10
2018-02-11T03:38:41.694Z,78.10
2018-02-11T03:41:10.211Z,78.10
2018-02-11T03:43:39.587Z,78.30
2018-02-11T03:46:08.069Z,78.30
2018-02-11T03:48:37.370Z,78.20
2018-02-11T03:51:05.870Z,77.90
2018-02-11T03:53:35.705Z,78.00
2018-02-11T03:56:04.196Z,78.00
2018-02-11T03:58:32.813Z,77.80
2018-02-11T04:01:01.297Z,77.10
2018-02-11T04:03:29.881Z,77.00
2018-02-11T04:05:58.365Z,77.20
2018-02-11T04:08:26.933Z,76.90
2018-02-11T04:10:55.389Z,77.00
2018-02-11T04:13:23.855Z,77.70
2018-02-11T04:15:52.342Z,77.00
2018-02-11T04:18:20.933Z,77.30
2018-02-11T04:20:49.424Z,76.90
2018-02-11T04:23:17.898Z,77.10
2018-02-11T04:25:46.395Z,77.00
2018-02-11T04:28:14.939Z,77.30
2018-02-11T04:30:43.442Z,77.00
2018-02-11T04:33:11.929Z,77.30
2018-02-11T04:35:40.428Z,77.50
2018-02-11T04:38:08.970Z,77.70
2018-02-11T04:40:38.425Z,78.20
2018-02-11T04:43:07.544Z,77.70
2018-02-11T04:45:36.161Z,77.70
2018-02-11T04:48:04.683Z,77.70
2018-02-11T04:50:33.962Z,77.20
2018-02-11T04:53:02.449Z,77.20
2018-02-11T04:55:30.963Z,77.30
2018-02-11T04:57:59.494Z,77.20
2018-02-11T05:00:28.005Z,76.80
2018-02-11T05:02:57.239Z,76.80
2018-02-11T05:05:25.789Z,76.90
2018-02-11T05:07:55.042Z,76.40
2018-02-11T05:10:23.569Z,76.40
2018-02-11T05:12:52.815Z,76.70
2018-02-11T05:15:21.340Z,76.70
2018-02-11T05:17:50.568Z,76.50
2018-02-11T05:20:19.135Z,76.60
2018-02-11T05:22:47.597Z,76.50
2018-02-11T05:25:16.973Z,76.60
2018-02-11T05:27:46.194Z,76.60
2018-02-11T05:30:16.119Z,76.50
2018-02-11T05:32:45.766Z,76.80
2018-02-11T05:35:14.323Z,76.80
2018-02-11T05:37:42.839Z,76.70
2018-02-11T05:40:11.359Z,76.60
2018-02-11T05:42:40.586Z,76.50
2018-02-11T05:45:09.078Z,76.60
2018-02-11T05:47:38.464Z,76.50
2018-02-11T05:50:07.328Z,76.30
2018-02-11T05:52:37.917Z,76.30
2018-02-11T05:55:07.039Z,76.20
2018-02-11T05:57:37.040Z,76.60
2018-02-11T06:00:05.593Z,75.80
2018-02-11T06:02:34.992Z,76.00
2018-02-11T06:05:03.483Z,76.00
2018-02-11T06:07:32.014Z,75.80
2018-02-11T06:10:01.258Z,76.30
2018-02-11T06:12:29.753Z,75.80
2018-02-11T06:14:58.236Z,75.90
2018-02-11T06:17:26.717Z,75.80
2018-02-11T06:19:55.207Z,75.60
2018-02-11T06:22:23.692Z,75.20
2018-02-11T06:24:52.208Z,74.80
2018-02-11T06:27:20.705Z,74.90
2018-02-11T06:29:49.196Z,75.30
2018-02-11T06:32:17.782Z,75.20
2018-02-11T06:34:46.252Z,75.40
2018-02-11T06:37:14.729Z,77.20
2018-02-11T06:39:43.317Z,74.40
2018-02-11T06:42:11.809Z,74.60
2018-02-11T06:44:40.292Z,74.70
2018-02-11T06:47:08.778Z,74.60
2018-02-11T06:49:37.314Z,74.90
2018-02-11T06:52:06.151Z,75.40
2018-02-11T06:54:34.681Z,75.20
2018-02-11T06:57:03.149Z,75.10
2018-02-11T06:59:31.664Z,75.20
2018-02-11T07:02:00.173Z,74.90
2018-02-11T07:04:28.672Z,76.00
2018-02-11T07:06:57.912Z,75.60
2018-02-11T07:09:26.435Z,75.00
2018-02-11T07:11:54.940Z,74.50
2018-02-11T07:14:24.237Z,75.20
2018-02-11T07:16:53.490Z,74.90
2018-02-11T07:19:22.090Z,74.90
2018-02-11T07:21:50.575Z,74.30
2018-02-11T07:24:19.086Z,74.60
2018-02-11T07:26:48.326Z,74.90
2018-02-11T07:29:16.914Z,74.90
2018-02-11T07:31:45.429Z,74.70
2018-02-11T07:34:14.690Z,75.70
2018-02-11T07:36:43.172Z,75.50
2018-02-11T07:39:11.676Z,75.10
2018-02-11T07:41:40.159Z,75.20
2018-02-11T07:44:08.732Z,74.80
2018-02-11T07:46:37.816Z,75.60
2018-02-11T07:49:07.081Z,74.90
2018-02-11T07:51:35.564Z,75.20
2018-02-11T07:54:04.180Z,75.50
2018-02-11T07:56:32.685Z,75.50
2018-02-11T07:59:01.925Z,75.90
2018-02-11T08:01:30.218Z,75.70
2018-02-11T08:03:58.777Z,74.80
2018-02-11T08:06:27.283Z,74.80
2018-02-11T08:08:55.829Z,75.00
2018-02-11T08:11:24.298Z,75.10
2018-02-11T08:13:52.837Z,75.40
2018-02-11T08:16:21.742Z,74.70
2018-02-11T08:18:50.246Z,75.40
2018-02-11T08:21:19.511Z,74.50
2018-02-11T08:23:47.873Z,74.50
2018-02-11T08:26:16.360Z,74.40
2018-02-11T08:28:44.938Z,74.60
2018-02-11T08:31:13.420Z,74.70
2018-02-11T08:33:41.987Z,75.40
2018-02-11T08:36:10.493Z,74.90
2018-02-11T08:41:37.213Z,75.40
2018-02-11T08:44:05.535Z,74.70
2018-02-11T08:46:34.784Z,75.40
2018-02-11T08:49:03.261Z,75.30
2018-02-11T08:51:31.743Z,74.40
2018-02-11T08:54:00.225Z,75.00
2018-02-11T08:56:28.740Z,75.20
2018-02-11T08:58:57.219Z,75.50
2018-02-11T09:01:25.719Z,75.20
2018-02-11T09:03:54.981Z,75.50
2018-02-11T09:06:23.460Z,75.50
2018-02-11T09:08:51.933Z,75.80
2018-02-11T09:11:20.417Z,75.50
2018-02-11T09:13:48.913Z,75.90
2018-02-11T09:16:17.446Z,75.60
2018-02-11T09:18:45.928Z,75.70
2018-02-11T09:21:14.448Z,76.00
2018-02-11T09:23:43.112Z,76.10
2018-02-11T09:26:11.621Z,76.00
2018-02-11T09:28:40.095Z,75.80
2018-02-11T09:31:08.614Z,75.90
2018-02-11T09:33:37.727Z,75.90
2018-02-11T09:36:06.312Z,76.00
2018-02-11T09:38:34.809Z,76.10
2018-02-11T09:41:03.301Z,76.00
2018-02-11T09:43:31.796Z,76.00
2018-02-11T09:46:00.278Z,76.00
2018-02-11T09:48:28.775Z,76.10
2018-02-11T09:50:58.026Z,76.20
2018-02-11T09:53:26.504Z,76.30
2018-02-11T09:55:55.003Z,76.00
2018-02-11T09:58:23.480Z,76.00
2018-02-11T10:00:51.972Z,76.10
2018-02-11T10:03:20.445Z,76.50
2018-02-11T10:05:48.931Z,76.50
2018-02-11T10:08:17.440Z,76.40
2018-02-11T10:10:46.669Z,76.50
2018-02-11T10:13:15.134Z,76.50
2018-02-11T10:15:43.633Z,76.40
2018-02-11T10:18:12.116Z,76.40
2018-02-11T10:20:40.606Z,76.90
2018-02-11T10:23:09.254Z,77.10
2018-02-11T10:25:38.301Z,77.40
2018-02-11T10:28:07.170Z,77.30
2018-02-11T10:30:35.651Z,77.40
2018-02-11T10:33:04.130Z,77.80
2018-02-11T10:35:32.618Z,78.20
2018-02-11T10:38:01.074Z,78.50
2018-02-11T10:40:29.555Z,78.30
2018-02-11T10:42:58.040Z,78.40
2018-02-11T10:45:26.537Z,78.50
2018-02-11T10:47:55.014Z,78.90
2018-02-11T10:50:23.497Z,79.40
2018-02-11T10:52:51.988Z,79.40
2018-02-11T10:55:20.453Z,79.40
2018-02-11T10:57:48.941Z,79.80
2018-02-11T11:00:18.315Z,79.60
2018-02-11T11:02:46.797Z,80.00
2018-02-11T11:05:15.286Z,80.00
2018-02-11T11:07:43.765Z,80.10
2018-02-11T11:10:12.291Z,80.30
2018-02-11T11:12:40.940Z,80.50
2018-02-11T11:15:09.422Z,80.30
2018-02-11T11:17:37.918Z,80.20
2018-02-11T11:20:07.781Z,81.00
2018-02-11T11:22:36.392Z,80.30
2018-02-11T11:25:04.868Z,80.50
2018-02-11T11:27:33.371Z,80.40
2018-02-11T11:30:01.848Z,80.50
2018-02-11T11:32:30.320Z,80.10
2018-02-11T11:34:58.823Z,80.30
2018-02-11T11:37:27.305Z,80.40
2018-02-11T11:39:55.785Z,80.70
2018-02-11T11:42:24.259Z,80.90
2018-02-11T11:44:52.728Z,81.10
2018-02-11T11:47:21.215Z,80.70
2018-02-11T11:49:49.723Z,80.60
2018-02-11T11:52:18.955Z,80.80
2018-02-11T11:54:47.425Z,80.70
2018-02-11T11:57:15.929Z,81.10
2018-02-11T11:59:44.444Z,81.10
2018-02-11T12:02:12.920Z,81.10
2018-02-11T12:04:42.365Z,81.30
2018-02-11T12:07:10.838Z,81.30
2018-02-11T12:09:39.347Z,81.20
2018-02-11T12:12:08.692Z,81.40
2018-02-11T12:14:37.182Z,81.50
2018-02-11T12:17:06.486Z,81.80
2018-02-11T12:19:35.716Z,81.60
2018-02-11T12:22:04.216Z,81.60
2018-02-11T12:24:32.692Z,82.00
2018-02-11T12:27:01.171Z,82.40
2018-02-11T12:29:29.660Z,82.10
2018-02-11T12:31:58.120Z,82.70
2018-02-11T12:34:26.587Z,82.60
2018-02-11T12:36:55.076Z,83.00
2018-02-11T12:39:23.588Z,83.30
2018-02-11T12:41:52.238Z,83.80
2018-02-11T12:44:20.703Z,83.60
2018-02-11T12:46:49.944Z,83.60
2018-02-11T12:49:18.420Z,83.50
2018-02-11T12:51:46.880Z,83.90
2018-02-11T12:54:15.360Z,83.80
2018-02-11T12:56:43.853Z,83.20
2018-02-11T12:59:12.316Z,83.50
2018-02-11T13:01:40.797Z,83.20
2018-02-11T13:04:10.304Z,84.30
2018-02-11T13:06:38.794Z,83.70
2018-02-11T13:09:07.766Z,83.30
2018-02-11T13:11:36.525Z,83.80
2018-02-11T13:14:05.760Z,84.30
2018-02-11T13:16:34.260Z,84.30
2018-02-11T13:19:02.733Z,83.40
2018-02-11T13:21:31.196Z,83.40
2018-02-11T13:23:59.716Z,84.10
2018-02-11T13:26:27.837Z,84.40
2018-02-11T13:28:56.324Z,85.20
2018-02-11T13:31:24.807Z,84.30
2018-02-11T13:33:53.302Z,84.80
2018-02-11T13:36:21.783Z,84.30
2018-02-11T13:38:50.289Z,83.80
2018-02-11T13:41:18.570Z,85.10
2018-02-11T13:43:47.046Z,83.90
2018-02-11T13:46:15.528Z,83.80
2018-02-11T13:48:44.007Z,83.80
2018-02-11T13:51:12.461Z,85.20
2018-02-11T13:53:40.939Z,83.80
2018-02-11T13:56:09.407Z,84.00
2018-02-11T13:58:38.490Z,84.60
2018-02-11T14:01:09.536Z,84.30
2018-02-11T14:03:38.017Z,84.20
2018-02-11T14:06:06.616Z,83.80
2018-02-11T14:08:35.074Z,84.80
2018-02-11T14:11:03.366Z,84.00
2018-02-11T14:13:31.822Z,84.30
2018-02-11T14:16:00.305Z,84.70
2018-02-11T14:18:28.758Z,83.90
2018-02-11T14:20:58.018Z,85.10
2018-02-11T14:23:26.470Z,85.10
2018-02-11T14:25:54.931Z,84.00
2018-02-11T14:28:24.180Z,84.30
2018-02-11T14:30:53.426Z,84.10
2018-02-11T14:33:22.686Z,84.50
2018-02-11T14:35:51.155Z,84.50
2018-02-11T14:38:19.623Z,84.50
2018-02-11T14:40:47.793Z,84.50
2018-02-11T14:43:16.584Z,85.50
2018-02-11T14:45:45.063Z,84.20
2018-02-11T14:48:13.761Z,83.80
2018-02-11T14:50:42.259Z,83.70
2018-02-11T14:53:10.725Z,83.60
2018-02-11T14:55:40.150Z,83.90
2018-02-11T14:58:09.213Z,84.80
2018-02-11T15:00:37.706Z,84.40
2018-02-11T15:03:06.842Z,83.90
2018-02-11T15:05:36.066Z,83.80
2018-02-11T15:08:04.364Z,83.80
2018-02-11T15:10:32.839Z,84.40
2018-02-11T15:13:01.358Z,85.40
2018-02-11T15:15:30.596Z,84.70
2018-02-11T15:17:59.104Z,84.70
2018-02-11T15:20:27.580Z,84.40
2018-02-11T15:22:56.077Z,84.60
2018-02-11T15:25:24.557Z,84.40
2018-02-11T15:27:53.835Z,84.30
2018-02-11T15:30:22.330Z,84.20
2018-02-11T15:32:50.803Z,84.40
2018-02-11T15:35:19.280Z,84.30
2018-02-11T15:37:47.769Z,85.00
2018-02-11T15:40:16.709Z,84.90
2018-02-11T15:42:45.192Z,84.60
2018-02-11T15:45:13.712Z,84.40
2018-02-11T15:47:42.169Z,84.40
2018-02-11T15:50:10.315Z,83.90
2018-02-11T15:52:38.791Z,84.30
2018-02-11T15:55:08.492Z,84.00
2018-02-11T15:57:37.735Z,84.50
2018-02-11T16:00:06.621Z,84.50
2018-02-11T16:02:35.164Z,85.00
2018-02-11T16:05:04.465Z,85.00
2018-02-11T16:07:32.957Z,84.90
2018-02-11T16:10:01.425Z,84.30
2018-02-11T16:12:30.680Z,84.30
2018-02-11T16:14:59.152Z,84.20
2018-02-11T16:17:27.621Z,85.00
2018-02-11T16:19:56.102Z,84.20
2018-02-11T16:22:24.600Z,85.00
2018-02-11T16:24:53.068Z,83.90
2018-02-11T16:27:21.527Z,83.90
2018-02-11T16:29:50.004Z,83.90
2018-02-11T16:32:18.483Z,84.70
2018-02-11T16:34:47.008Z,84.50
2018-02-11T16:37:15.473Z,84.10
2018-02-11T16:39:43.964Z,83.70
2018-02-11T16:42:12.428Z,83.60
2018-02-11T16:44:40.921Z,84.10
2018-02-11T16:47:10.225Z,84.50
2018-02-11T16:49:39.134Z,85.20
2018-02-11T16:52:07.635Z,84.70
2018-02-11T16:54:37.541Z,84.40
2018-02-11T16:57:07.462Z,85.30
2018-02-11T16:59:37.458Z,85.00
2018-02-11T17:02:06.148Z,84.90
2018-02-11T17:04:35.422Z,85.10
2018-02-11T17:07:03.905Z,85.10
2018-02-11T17:09:32.377Z,85.20
2018-02-11T17:12:00.872Z,84.40
2018-02-11T17:14:29.349Z,84.40
2018-02-11T17:16:57.852Z,84.40
2018-02-11T17:19:27.123Z,84.50
2018-02-11T17:21:55.605Z,84.50
2018-02-11T17:24:24.081Z,84.20
2018-02-11T17:26:52.563Z,83.80
2018-02-11T17:29:21.033Z,84.20
2018-02-11T17:31:49.527Z,84.30
2018-02-11T17:34:17.999Z,84.00
2018-02-11T17:36:46.470Z,83.50
2018-02-11T17:39:14.957Z,83.40
2018-02-11T17:41:43.260Z,85.00
2018-02-11T17:44:11.756Z,84.40
2018-02-11T17:46:41.002Z,83.80
2018-02-11T17:49:09.478Z,83.80
2018-02-11T17:51:38.825Z,84.10
2018-02-11T17:54:08.461Z,84.60
2018-02-11T17:56:37.688Z,84.40
2018-02-11T17:59:06.180Z,84.30
2018-02-11T18:01:34.658Z,84.30
2018-02-11T18:04:03.152Z,84.40
2018-02-11T18:06:31.614Z,84.20
2018-02-11T18:09:00.125Z,84.40
2018-02-11T18:11:28.597Z,84.00
2018-02-11T18:13:57.068Z,83.60
2018-02-11T18:16:25.569Z,83.80
2018-02-11T18:18:54.824Z,84.10
2018-02-11T18:21:23.607Z,84.00
2018-02-11T18:23:52.099Z,84.10
2018-02-11T18:26:20.572Z,83.80
2018-02-11T18:28:49.051Z,83.70
2018-02-11T18:31:17.541Z,83.70
2018-02-11T18:33:46.000Z,84.10
2018-02-11T18:36:14.521Z,84.00
2018-02-11T18:38:42.991Z,84.20
2018-02-11T18:41:11.458Z,83.60
2018-02-11T18:43:39.949Z,83.80
2018-02-11T18:46:09.249Z,83.70
2018-02-11T18:48:37.720Z,84.10
2018-02-11T18:51:06.221Z,83.90
2018-02-11T18:53:34.717Z,83.40
2018-02-11T18:56:03.200Z,83.90
2018-02-11T18:58:31.723Z,83.80
2018-02-11T19:01:00.239Z,84.40
2018-02-11T19:03:28.704Z,84.20
2018-02-11T19:05:57.189Z,84.00
2018-02-11T19:08:25.684Z,83.60
2018-02-11T19:10:54.156Z,83.80
2018-02-11T19:13:22.639Z,84.00
2018-02-11T19:15:51.123Z,83.70
2018-02-11T19:18:19.675Z,83.60
2018-02-11T19:20:48.149Z,83.40
2018-02-11T19:23:16.621Z,83.80
2018-02-11T19:25:45.125Z,83.40
2018-02-11T19:28:13.589Z,83.40
2018-02-11T19:30:42.060Z,83.10
2018-02-11T19:33:10.539Z,83.00
2018-02-11T19:35:39.007Z,83.80
2018-02-11T19:38:08.259Z,83.20
2018-02-11T19:40:36.736Z,83.30
2018-02-11T19:43:05.227Z,83.20
2018-02-11T19:45:33.687Z,83.80
2018-02-11T19:48:01.823Z,83.10
2018-02-11T19:50:30.316Z,82.90
2018-02-11T19:52:58.769Z,82.70
2018-02-11T19:55:28.041Z,82.90
2018-02-11T19:57:56.503Z,82.90
2018-02-11T20:00:24.796Z,82.90
2018-02-11T20:02:53.275Z,83.10
2018-02-11T20:05:21.744Z,83.50
2018-02-11T20:07:50.244Z,83.40
2018-02-11T20:10:18.714Z,83.70
2018-02-11T20:12:47.173Z,83.50
2018-02-11T20:15:15.652Z,83.60
2018-02-11T20:17:44.154Z,83.70
2018-02-11T20:20:12.611Z,83.60
2018-02-11T20:22:41.089Z,83.10
2018-02-11T20:25:10.541Z,83.30
2018-02-11T20:27:39.770Z,83.10
2018-02-11T20:30:08.253Z,82.90
2018-02-11T20:32:36.745Z,82.70
2018-02-11T20:35:05.207Z,82.80
2018-02-11T20:37:33.700Z,82.50
2018-02-11T20:40:02.167Z,82.80
2018-02-11T20:42:30.634Z,82.70
2018-02-11T20:44:59.880Z,83.00
2018-02-11T20:47:28.356Z,83.00
2018-02-11T20:49:56.841Z,82.90
2018-02-11T20:52:25.311Z,83.30
2018-02-11T20:54:53.792Z,83.40
2018-02-11T20:57:22.285Z,83.50
2018-02-11T20:59:50.757Z,83.20
2018-02-11T21:02:19.232Z,83.30
2018-02-11T21:04:47.729Z,83.10
2018-02-11T21:07:16.192Z,82.90
2018-02-11T21:09:44.488Z,83.00
2018-02-11T21:12:13.713Z,83.20
2018-02-11T21:14:42.284Z,83.30
2018-02-11T21:17:10.752Z,83.30
2018-02-11T21:19:39.994Z,82.90
2018-02-11T21:22:09.845Z,84.30
2018-02-11T21:24:37.975Z,84.30
2018-02-11T21:27:07.675Z,84.00
2018-02-11T21:29:36.196Z,84.00
2018-02-11T21:32:04.672Z,83.50
2018-02-11T21:34:33.164Z,84.00
2018-02-11T21:37:01.651Z,84.10
2018-02-11T21:39:29.935Z,83.90
2018-02-11T21:41:58.432Z,83.80
2018-02-11T21:44:26.908Z,83.80
2018-02-11T21:46:55.358Z,83.80
2018-02-11T21:49:23.838Z,83.40
2018-02-11T21:51:52.328Z,83.20
2018-02-11T21:54:20.805Z,83.50
2018-02-11T21:56:49.296Z,83.00
2018-02-11T21:59:17.765Z,82.90
2018-02-11T22:01:46.237Z,82.50
2018-02-11T22:04:14.715Z,82.60
2018-02-11T22:06:43.174Z,83.10
2018-02-11T22:09:12.427Z,82.50
2018-02-11T22:11:40.886Z,82.50
2018-02-11T22:14:10.357Z,82.20
2018-02-11T22:16:39.864Z,82.50
2018-02-11T22:19:08.348Z,82.40
2018-02-11T22:21:36.891Z,82.80
2018-02-11T22:24:05.392Z,83.00
2018-02-11T22:26:34.633Z,83.10
2018-02-11T22:29:03.108Z,83.10
2018-02-11T22:31:31.596Z,83.30
2018-02-11T22:34:00.070Z,83.50
2018-02-11T22:36:28.572Z,83.30
2018-02-11T22:38:57.037Z,83.10
2018-02-11T22:41:25.506Z,83.10
2018-02-11T22:43:53.995Z,83.10
2018-02-11T22:46:22.472Z,83.00
2018-02-11T22:48:50.951Z,83.70
2018-02-11T22:51:19.437Z,83.20
2018-02-11T22:53:47.931Z,83.50
2018-02-11T22:56:16.386Z,83.30
2018-02-11T22:58:44.887Z,83.40
2018-02-11T23:01:13.375Z,83.80
2018-02-11T23:03:41.860Z,83.20
2018-02-11T23:06:10.541Z,82.90
2018-02-11T23:08:39.039Z,82.30
2018-02-11T23:11:08.570Z,82.70
2018-02-11T23:13:38.438Z,83.10
2018-02-11T23:16:06.901Z,83.10
2018-02-11T23:18:35.399Z,82.80
2018-02-11T23:21:03.864Z,82.20
2018-02-11T23:23:32.374Z,82.10
2018-02-11T23:26:00.846Z,82.10
2018-02-11T23:28:29.335Z,82.20
2018-02-11T23:30:57.806Z,82.50
2018-02-11T23:33:26.278Z,82.60
2018-02-11T23:35:54.761Z,82.10
2018-02-11T23:38:23.235Z,82.30
2018-02-11T23:40:51.738Z,82.30
2018-02-11T23:43:20.212Z,82.20
2018-02-11T23:45:48.670Z,82.10
2018-02-11T23:48:17.146Z,82.20
2018-02-11T23:50:45.621Z,81.80
2018-02-11T23:53:14.147Z,81.60
2018-02-11T23:55:42.793Z,81.70
2018-02-11T23:58:11.267Z,81.30
